Главная страница
METAR-TAF:

METAR-TAF

Аэропорты :

Вьентьян, Лаос

Ваттай

широта: 17-57N, долгота: 102-34E, высота над уровнем моря: 171 м

Текущие метеонаблюдения

Эта сводка был подготовлена 5 часа и 27 минут назад, в 16:30 UTC
Ветер 2 Узел от северо-западный
Температура 24°C
Влажность 94%
Давление 1009 hPa
Видимость: 4000 м
Рассеянная облачность на высоте 8300 фута
дымка

METAR: VLVT 251630Z 32002KT 4000 BR BKN083 24/23 Q1009 NOSIG

Время: 04:57 (21:57 UTC)

Прогноз

Эта сводка был подготовлена 4 часа и 57 минут назад, в 17:00 UTC
Прогноз действительный с 25-го 18 UTC до 26-го 18 UTC
Ветер 6 Узел от западный
Видимость: 7000 м
Отдельные облака на высоте 2000 фута
Отдельные облака на высоте 5000 фута
временами
С 25-го 18 UTC до 25-го 22 UTC
Видимость: 4000 м
Отдельные облака на высоте 4000 фута
Рассеянная облачность на высоте 8300 фута
дымка

TAF: VLVT 251700Z 2518/2618 27006KT 7000 SCT020 SCT050 TEMPO 2518/2522 4000 BR SCT040 BKN083

Метеонаблюдения и прогнозы для более 4000 аэропортов (сводки METAR и TAF).

Имеющиеся станции представлены на карте желтыми и красными точками.

Чтобы увидеть название станции, наведите на нее мышь.

Затем щелкните, чтобы увидеть метеонаблюдения и метеопрогнозы.

Управление картой: чтобы увеличить масштаб, щелкните зеленые кнопки с черным крестиком; чтобы уменьшить масштаб, щелкните зеленую кнопку с тире; для просмотра соседних карт щелкайте зеленые стрелки.


METAR-TAF: